• Join FlightAware (Why Join?)
  • Login
  • US Flag 
07:29AM EDT


 

Airport Tracker/Info


-or-


 

Live Flight TrackerFlight Track Log ✈ JZA8106 ✈ 19-Apr-2013 ✈ CYYC - KIAH

Flight Track Log - Related Links

Times and Time Zones

All times are in EDT time to prevent confusion due to time zone crossing. See the JZA8106 flight status page for this flight to view local times or setup timezone preferences in your user account.

Time Position Orientation Groundspeed Altitude Reporting Facility
EDT Latitude Longitude Course Direction KTS MPH feet Rate Location/Type
09:17PM 51.1000 -114.0333 360° North 10 12 3,600  Level Edmonton Center
09:22PM 51.1000 -114.0333 270° West 10 12 3,600 120 Level Edmonton Center
09:23PM 51.0500 -114.0500 192° South 180 207 4,400 1,560 Climbing Edmonton Center
09:24PM 51.0000 -114.0500 180° South 220 253 6,300 1,800 Climbing Edmonton Center
09:25PM 50.9333 -114.0333 171° South 270 311 8,100 2,100 Climbing Edmonton Center
09:26PM 50.8500 -113.9833 159° South 290 334 10,500 1,800 Climbing Edmonton Center
09:27PM 50.7500 -113.9667 174° South 330 380 11,800 1,260 Climbing Edmonton Center
09:28PM 50.6500 -113.9167 162° South 390 449 13,100 1,500 Climbing Edmonton Center
09:29PM 50.5333 -113.8667 165° South 400 460 14,900 1,800 Climbing Edmonton Center
09:30PM 50.4167 -113.8167 165° South 420 483 16,800 1,860 Climbing Edmonton Center
09:31PM 50.3167 -113.7667 162° South 430 495 18,700 1,680 Climbing Edmonton Center
09:32PM 50.2000 -113.7000 160° South 440 506 20,200 1,500 Climbing Edmonton Center
09:33PM 50.1000 -113.5667 139° Southeast 450 518 21,700 1,380 Climbing Edmonton Center
09:34PM 50.0167 -113.4500 138° Southeast 460 529 23,000 1,200 Climbing Edmonton Center
09:35PM 49.9167 -113.3000 136° Southeast 470 541 24,100 1,080 Climbing Edmonton Center
09:36PM 49.8167 -113.1667 139° Southeast 480 552 25,200 1,020 Climbing Edmonton Center
09:37PM 49.7000 -113.0167 140° Southeast 490 564 26,200 1,380 Climbing Edmonton Center
09:38PM 49.6000 -112.8667 136° Southeast 480 552 28,000 1,500 Climbing Edmonton Center
09:39PM 49.5000 -112.7500 143° Southeast 480 552 29,300 1,320 Climbing Edmonton Center
09:40PM 49.4000 -112.6000 136° Southeast 470 541 30,700 1,200 Climbing Edmonton Center
09:41PM 49.3000 -112.4833 143° Southeast 470 541 31,800 1,200 Climbing Edmonton Center
09:42PM 49.2000 -112.3333 136° Southeast 470 541 33,200 1,140 Climbing Edmonton Center
09:43PM 49.1000 -112.2167 143° Southeast 460 529 34,100 900 Climbing Edmonton Center
09:44PM 49.0167 -112.0833 134° Southeast 460 529 35,000 660 Climbing Edmonton Center
09:45PM 48.9000 -111.9500 143° Southeast 470 541 35,500 720 Climbing Edmonton Center
09:46PM 48.8167 -111.8333 137° Southeast 470 541 36,500 600 Climbing Edmonton Center
09:47PM 48.7167 -111.7000 139° Southeast 470 541 36,700 240 Climbing Edmonton Center
09:48PM 48.6000 -111.5833 147° Southeast 470 541 37,000 180 Climbing Edmonton Center
09:48PM 48.6092 -111.5164 78° East 477 549 37,000  Level Salt Lake Center
09:49PM 48.5053 -111.3842 140° Southeast 484 557 37,000  Level Salt Lake Center
09:50PM 48.4008 -111.2519 140° Southeast 488 562 37,000  Level Salt Lake Center
09:51PM 48.2953 -111.1183 140° Southeast 492 566 37,000  Level Salt Lake Center
09:53PM 48.1700 -110.9594 140° Southeast 491 565 37,000  Level Salt Lake Center
09:54PM 48.0639 -110.8297 141° Southeast 489 563 37,000  Level Salt Lake Center
09:55PM 47.9572 -110.6983 140° Southeast 493 567 37,000  Level Salt Lake Center
09:56PM 47.8508 -110.5672 140° Southeast 493 567 37,000  Level Salt Lake Center
09:57PM 47.7458 -110.4394 141° Southeast 488 562 37,000  Level Salt Lake Center
09:58PM 47.6422 -110.3103 140° Southeast 487 560 37,000  Level Salt Lake Center
09:59PM 47.5356 -110.1853 142° Southeast 487 560 37,000 -60 Level Salt Lake Center
10:00PM 47.4319 -110.0592 141° Southeast 483 556 36,900  Descending Salt Lake Center
10:01PM 47.3272 -109.9331 141° Southeast 485 558 37,000  Climbing Salt Lake Center
10:02PM 47.2236 -109.8083 141° Southeast 483 556 36,900  Descending Salt Lake Center
10:03PM 47.1000 -109.6572 140° Southeast 483 556 37,000  Climbing Salt Lake Center
10:04PM 46.9906 -109.5411 144° Southeast 485 558 37,000  Level Salt Lake Center
10:05PM 46.8753 -109.4408 149° Southeast 482 555 37,000  Level Salt Lake Center
10:06PM 46.7600 -109.3372 148° Southeast 486 559 37,000  Level Salt Lake Center
10:07PM 46.6361 -109.2292 149° Southeast 492 566 37,000  Level Salt Lake Center
10:08PM 46.5267 -109.1314 148° Southeast 484 557 37,000  Level Salt Lake Center
10:09PM 46.3972 -109.0167 149° Southeast 487 560 37,000  Level Salt Lake Center
10:10PM 46.2858 -108.9189 149° Southeast 487 560 37,000  Level Salt Lake Center
10:11PM 46.1564 -108.8050 149° Southeast 488 562 37,000  Level Salt Lake Center
10:12PM 46.0447 -108.7072 149° Southeast 489 563 37,000  Level Salt Lake Center
10:13PM 45.9333 -108.6103 149° Southeast 489 563 37,000  Level Salt Lake Center
10:14PM 45.8039 -108.4969 149° Southeast 488 562 37,000  Level Salt Lake Center
10:15PM 45.6903 -108.4006 149° Southeast 493 567 37,000  Level Salt Lake Center
10:16PM 45.5578 -108.2875 149° Southeast 498 573 37,000  Level Salt Lake Center
10:17PM 45.4456 -108.1911 149° Southeast 493 567 37,000  Level Salt Lake Center
10:18PM 45.3128 -108.0792 149° Southeast 493 567 37,000  Level Salt Lake Center
10:19PM 45.2000 -107.9836 149° Southeast 492 566 37,000  Level Salt Lake Center
10:20PM 45.0872 -107.8886 149° Southeast 489 563 37,000  Level Salt Lake Center
10:21PM 44.9556 -107.7767 149° Southeast 486 559 37,100  Climbing Salt Lake Center
10:22PM 44.8383 -107.6803 150° Southeast 495 570 37,000  Descending Salt Lake Center
10:23PM 44.7236 -107.5858 150° Southeast 492 566 37,100  Climbing Salt Lake Center
10:24PM 44.5906 -107.4764 150° Southeast 494 568 37,000  Descending Salt Lake Center
10:25PM 44.4761 -107.3831 150° Southeast 495 570 37,100  Climbing Salt Lake Center
10:26PM 44.3622 -107.2894 150° Southeast 496 571 37,000 -60 Descending Salt Lake Center
10:27PM 44.2300 -107.1817 150° Southeast 493 567 37,000  Level Salt Lake Center
10:28PM 44.1167 -107.0906 150° Southeast 493 567 37,000  Level Salt Lake Center
10:29PM 43.9847 -106.9831 150° Southeast 492 566 37,000  Level Salt Lake Center
10:30PM 43.8661 -106.8936 151° Southeast 497 572 37,000  Level Salt Lake Center
10:32PM 43.7517 -106.8031 150° Southeast 496 571 37,000  Level Salt Lake Center
10:33PM 43.6214 -106.6947 149° Southeast 494 568 37,000  Level Salt Lake Center
10:33PM 43.5264 -106.6192 150° Southeast 494 568 37,000  Level Denver Center
10:34PM 43.3931 -106.5147 150° Southeast 494 568 37,000  Level Denver Center
10:35PM 43.2792 -106.4253 150° Southeast 494 568 37,000  Level Denver Center
10:36PM 43.1453 -106.3211 150° Southeast 495 570 37,000  Level Denver Center
10:38PM 43.0319 -106.2289 149° Southeast 499 574 37,000  Level Denver Center
10:39PM 42.9014 -106.1144 147° Southeast 502 578 37,000  Level Denver Center
10:40PM 42.7914 -106.0175 147° Southeast 496 571 37,000  Level Denver Center
10:41PM 42.6794 -105.9217 148° Southeast 497 572 37,000  Level Denver Center
10:42PM 42.5489 -105.8086 147° Southeast 498 573 37,000  Level Denver Center
10:43PM 42.4364 -105.7133 148° Southeast 499 574 37,000  Level Denver Center
10:44PM 42.3058 -105.6017 148° Southeast 501 577 37,000  Level Denver Center
10:45PM 42.1939 -105.5061 148° Southeast 499 574 37,000  Level Denver Center
10:46PM 42.0622 -105.3953 148° Southeast 502 578 37,000  Level Denver Center
10:47PM 41.9492 -105.3017 148° Southeast 501 577 37,000  Level Denver Center
10:48PM 41.8181 -105.1925 148° Southeast 500 575 37,000  Level Denver Center
10:49PM 41.7047 -105.0978 148° Southeast 501 577 37,000  Level Denver Center
10:50PM 41.5725 -104.9883 148° Southeast 502 578 37,000  Level Denver Center
10:51PM 41.4589 -104.8942 148° Southeast 502 578 37,000  Level Denver Center
10:52PM 41.3458 -104.8017 148° Southeast 500 575 37,000  Level Denver Center
10:53PM 41.2139 -104.6936 148° Southeast 499 574 37,000  Level Denver Center
10:54PM 41.1003 -104.6008 148° Southeast 500 575 37,000  Level Denver Center
10:55PM 40.9769 -104.5014 149° Southeast 501 577 37,000  Level Denver Center
10:56PM 40.8572 -104.4042 148° Southeast 500 575 37,000  Level Denver Center
10:57PM 40.7372 -104.3067 148° Southeast 501 577 37,000  Level Denver Center
10:58PM 40.6169 -104.2119 149° Southeast 498 573 37,000  Level Denver Center
10:59PM 40.4556 -104.0831 149° Southeast 504 580 37,000  Level Denver Center
11:01PM 40.3372 -103.9869 148° Southeast 496 571 37,000  Level Denver Center
11:02PM 40.2036 -103.8556 143° Southeast 506 582 37,000  Level Denver Center
11:03PM 40.0886 -103.7439 143° Southeast 509 586 37,000  Level Denver Center
11:04PM 39.9739 -103.6353 144° Southeast 503 579 37,000  Level Denver Center
11:05PM 39.8575 -103.5247 144° Southeast 508 585 37,000  Level Denver Center
11:06PM 39.7417 -103.4136 144° Southeast 510 587 37,000  Level Denver Center
11:07PM 39.6261 -103.3039 144° Southeast 508 585 37,000  Level Denver Center
11:08PM 39.5103 -103.1947 144° Southeast 508 585 37,000  Level Denver Center
11:09PM 39.3931 -103.0856 144° Southeast 512 589 37,000  Level Denver Center
11:10PM 39.2583 -102.9592 144° Southeast 508 585 37,000  Level Denver Center
11:11PM 39.1425 -102.8514 144° Southeast 509 586 37,000  Level Denver Center
11:12PM 39.0247 -102.7428 144° Southeast 511 588 37,000  Level Denver Center
11:13PM 38.9139 -102.6417 145° Southeast 511 588 37,000  Level Denver Center
11:14PM 38.8039 -102.5392 144° Southeast 510 587 37,000  Level Denver Center
11:15PM 38.6753 -102.4214 144° Southeast 510 587 37,000  Level Denver Center
11:16PM 38.5642 -102.3197 144° Southeast 512 589 37,000  Level Denver Center
11:17PM 38.4347 -102.2011 144° Southeast 513 590 37,000  Level Denver Center
11:18PM 38.3217 -102.1000 145° Southeast 517 595 37,000  Level Denver Center
11:19PM 38.1692 -101.9683 146° Southeast 518 596 37,000  Level Denver Center
11:20PM 38.0364 -101.8533 146° Southeast 520 598 37,000  Level Denver Center
11:21PM 37.9014 -101.7406 147° Southeast 522 601 37,100  Climbing Denver Center
11:22PM 37.7883 -101.6425 146° Southeast 517 595 37,000 -120 Descending Denver Center
11:23PM 37.7122 -101.5781 146° Southeast 518 596 37,000 1,200 Level Kansas City Center
11:24PM 37.6017 -101.4847 146° Southeast 503 579 38,900 960 Climbing Kansas City Center
11:25PM 37.4950 -101.3953 146° Southeast 487 560 39,000  Climbing Kansas City Center
11:26PM 37.3678 -101.2881 146° Southeast 494 568 39,000  Level Kansas City Center
11:27PM 37.2578 -101.1956 146° Southeast 499 574 39,000  Level Kansas City Center
11:28PM 37.1461 -101.1025 146° Southeast 503 579 39,000  Level Kansas City Center
11:29PM 37.0144 -100.9928 146° Southeast 508 585 39,000  Level Kansas City Center
11:30PM 36.9003 -100.8986 147° Southeast 512 589 39,100  Climbing Kansas City Center
11:31PM 36.7681 -100.7906 147° Southeast 510 587 39,000 -60 Descending Kansas City Center
11:32PM 36.6556 -100.6956 146° Southeast 510 587 39,000  Level Kansas City Center
11:33PM 36.5428 -100.6039 147° Southeast 507 583 39,000  Level Kansas City Center
11:34PM 36.4303 -100.5147 147° Southeast 505 581 39,000  Level Kansas City Center
11:35PM 36.2897 -100.3964 146° Southeast 507 583 39,000  Level Albuquerque Center
11:36PM 36.1703 -100.3014 147° Southeast 510 587 39,000  Level Kansas City Center
11:37PM 36.0514 -100.2053 147° Southeast 510 587 39,000  Level Kansas City Center
11:38PM 35.9322 -100.1100 147° Southeast 510 587 39,000  Level Kansas City Center
11:39PM 35.8156 -100.0158 147° Southeast 506 582 39,000  Level Kansas City Center
11:40PM 35.6981 -99.9231 147° Southeast 504 580 39,000  Level Kansas City Center
11:41PM 35.5808 -99.8292 147° Southeast 504 580 39,000  Level Albuquerque Center
11:42PM 35.4392 -99.7169 147° Southeast 506 582 39,000  Level Albuquerque Center
11:43PM 35.3214 -99.6244 147° Southeast 506 582 39,000  Level Albuquerque Center
11:44PM 35.2025 -99.5311 147° Southeast 506 582 39,000  Level Albuquerque Center
11:45PM 35.0847 -99.4383 147° Southeast 505 581 39,000  Level Albuquerque Center
11:46PM 34.9656 -99.3458 148° Southeast 507 583 39,000  Level Albuquerque Center
11:47PM 34.8467 -99.2522 147° Southeast 508 585 39,000  Level Albuquerque Center
11:48PM 34.7275 -99.1600 148° Southeast 508 585 39,000  Level Albuquerque Center
11:50PM 34.5819 -99.0531 149° Southeast 507 583 39,000  Level Fort Worth Center
11:51PM 34.4600 -98.9600 148° Southeast 507 583 39,000  Level Fort Worth Center
11:52PM 34.3422 -98.8697 148° Southeast 507 583 39,000  Level Fort Worth Center
11:53PM 34.2242 -98.7825 149° Southeast 502 578 39,000  Level Fort Worth Center
11:54PM 34.1042 -98.6903 148° Southeast 508 585 39,000  Level Fort Worth Center
11:55PM 33.9903 -98.5933 145° Southeast 508 585 39,000  Level Fort Worth Center
11:56PM 33.8956 -98.4644 132° Southeast 503 579 39,000  Level Fort Worth Center
11:57PM 33.7814 -98.3706 146° Southeast 498 573 39,000  Level Fort Worth Center
11:58PM 33.6694 -98.2794 146° Southeast 492 566 39,000  Level Fort Worth Center
11:59PM 33.5531 -98.1861 146° Southeast 492 566 39,000  Level Fort Worth Center
12:00AM 33.4431 -98.0931 145° Southeast 495 570 39,000  Level Fort Worth Center
12:01AM 33.3267 -97.9978 146° Southeast 495 570 39,000  Level Fort Worth Center
12:02AM 33.2269 -97.9150 145° Southeast 489 563 39,000  Level Fort Worth Center
12:03AM 33.1167 -97.8178 144° Southeast 489 563 39,000  Level Fort Worth Center
12:04AM 33.0019 -97.7281 147° Southeast 489 563 39,000  Level Fort Worth Center
12:05AM 32.8917 -97.6361 145° Southeast 489 563 39,000  Level Fort Worth Center
12:06AM 32.7811 -97.5444 145° Southeast 489 563 39,000  Level Fort Worth Center
12:07AM 32.6683 -97.4553 146° Southeast 489 563 39,000  Level Fort Worth Center
12:08AM 32.5517 -97.3739 150° Southeast 489 563 39,000  Level Fort Worth Center
12:09AM 32.4408 -97.2831 145° Southeast 484 557 39,000  Level Fort Worth Center
12:10AM 32.3322 -97.1944 145° Southeast 484 557 39,000  Level Fort Worth Center
12:11AM 32.2192 -97.1039 146° Southeast 489 563 39,000  Level Fort Worth Center
12:12AM 32.1083 -97.0111 145° Southeast 489 563 39,000  Level Fort Worth Center
12:13AM 31.9931 -96.9186 146° Southeast 489 563 39,000  Level Fort Worth Center
12:14AM 31.8717 -96.8214 146° Southeast 483 556 39,000  Level Fort Worth Center
12:15AM 31.7583 -96.7317 146° Southeast 490 564 39,000  Level Fort Worth Center
12:17AM 31.5325 -96.5469 145° Southeast 493 567 39,000 -300 Level Houston Center
12:18AM 31.4167 -96.4550 146° Southeast 494 568 38,200 -1,980 Descending Houston Center
12:19AM 31.3017 -96.3658 146° Southeast 489 563 35,100 -2,100 Descending Houston Center
12:20AM 31.1875 -96.2747 146° Southeast 486 559 34,000 -1,200 Descending Houston Center
12:21AM 31.0719 -96.1850 146° Southeast 489 563 32,700 -2,220 Descending Houston Center
12:22AM 30.9592 -96.0967 146° Southeast 482 555 29,600 -3,060 Descending Houston Center
12:22AM 30.8700 -96.0503 156° South 449 517 27,200 -3,120 Descending Houston Center
12:23AM 30.7853 -96.0139 160° South 440 506 24,900 -3,000 Descending Houston Center
12:24AM 30.7372 -95.9925 159° South 442 509 23,600 -3,240 Descending Houston Center
12:24AM 30.6828 -95.9697 160° South 432 497 22,000 -3,540 Descending Houston Center
12:25AM 30.6194 -95.9442 161° South 428 493 20,100 -3,180 Descending Houston Center
12:25AM 30.5611 -95.9208 161° South 414 476 18,500 -2,880 Descending Houston Center
12:26AM 30.5125 -95.8986 159° South 413 475 17,200 -3,060 Descending Houston Center
12:26AM 30.4500 -95.8731 161° South 409 471 15,400 -3,120 Descending Houston Center
12:27AM 30.4044 -95.8533 160° South 414 476 14,100 -2,220 Descending Houston Center
12:27AM 30.3433 -95.8297 162° South 400 460 13,200 -1,500 Descending Houston Center
12:28AM 30.3025 -95.8117 159° South 392 451 12,600 -1,500 Descending Houston Center
12:28AM 30.2494 -95.7900 161° South 344 396 11,700 -1,500 Descending Houston Center
12:29AM 30.2144 -95.7758 161° South 345 397 11,100 -1,620 Descending Houston Center
12:29AM 30.1647 -95.7564 161° South 304 350 10,100 -1,800 Descending Houston Center
12:30AM 30.1364 -95.7431 158° South 305 351 9,300 -2,220 Descending Houston Center
12:30AM 30.0972 -95.7281 162° South 289 333 8,100 -2,340 Descending Houston Center
12:31AM 30.0617 -95.7122 159° South 290 334 7,000 -2,280 Descending Houston Center
12:31AM 30.0142 -95.6919 160° South 283 326 5,600 -1,980 Descending Houston Center
12:32AM 29.9953 -95.6700 135° Southeast 283 326 5,000 -840 Descending Houston Center
12:32AM 29.9892 -95.6247 99° East 211 243 4,800 -540 Descending Houston Center
12:33AM 29.9892 -95.6036 90° East 212 244 4,500 -1,020 Descending Houston Center
12:33AM 29.9925 -95.5667 84° East 170 196 3,800 -1,140 Descending Houston Center
12:34AM 29.9939 -95.5467 85° East 182 209 3,400 -1,140 Descending Houston Center
12:34AM 29.9919 -95.5136 94° East 185 213 2,800 -1,020 Descending Houston Center
12:35AM 29.9931 -95.4869 87° East 183 211 2,400 -1,020 Descending Houston Center
12:35AM 29.9933 -95.4361 90° East 181 208 1,500 -960 Descending Houston Center
12:36AM 29.9933 -95.3903 90° East 139 160 800 -660 Descending Houston Center
12:37AM 29.9939 -95.3825 85° East 162 186 700 -480 Descending Houston Center
12:38AM 29.9947 -95.3336 89° East 149 171 200 -540 Descending Houston Center